createdAt,value
2019-02-27T00:00:16.350Z,360.30
2019-02-27T00:02:48.648Z,212.40
2019-02-27T00:05:19.298Z,569.07
2019-02-27T00:07:53.931Z,608.87
2019-02-27T00:10:22.051Z,255.23
2019-02-27T00:12:52.633Z,401.27
2019-02-27T00:15:23.257Z,366.87
2019-02-27T00:17:53.872Z,467.87
2019-02-27T00:20:24.493Z,424.60
2019-02-27T00:22:54.807Z,296.93
2019-02-27T00:25:25.628Z,243.97
2019-02-27T00:27:56.115Z,336.27
2019-02-27T00:30:26.519Z,346.80
2019-02-27T00:32:57.069Z,362.63
2019-02-27T00:35:27.676Z,385.17
2019-02-27T00:37:58.152Z,518.10
2019-02-27T00:40:28.728Z,404.47
2019-02-27T00:42:59.128Z,297.80
2019-02-27T00:45:29.844Z,270.97
2019-02-27T00:48:00.484Z,452.83
2019-02-27T00:50:31.024Z,386.07
2019-02-27T00:53:01.513Z,330.47
2019-02-27T00:55:32.220Z,398.00
2019-02-27T00:58:02.652Z,377.20
2019-02-27T01:00:34.238Z,373.37
2019-02-27T01:03:06.532Z,470.83
2019-02-27T01:05:40.901Z,412.40
2019-02-27T01:08:09.067Z,444.00
2019-02-27T01:10:39.804Z,295.57
2019-02-27T01:13:10.228Z,414.03
2019-02-27T01:15:41.773Z,465.13
2019-02-27T01:18:13.187Z,417.90
2019-02-27T01:20:46.460Z,528.37
2019-02-27T01:23:15.986Z,426.90
2019-02-27T01:25:46.512Z,486.80
2019-02-27T01:28:17.288Z,328.80
2019-02-27T01:30:47.877Z,300.03
2019-02-27T01:33:18.589Z,513.27
2019-02-27T01:35:51.266Z,530.37
2019-02-27T01:38:21.218Z,610.10
2019-02-27T01:40:52.144Z,486.00
2019-02-27T01:43:22.633Z,476.37
2019-02-27T01:45:54.945Z,496.07
2019-02-27T01:48:25.498Z,553.60
2019-02-27T01:50:56.022Z,494.67
2019-02-27T01:53:26.565Z,381.80
2019-02-27T01:55:57.026Z,334.57
2019-02-27T01:58:27.752Z,167.77
2019-02-27T02:00:58.168Z,269.53
2019-02-27T02:03:29.125Z,380.90
2019-02-27T02:05:59.903Z,273.47
2019-02-27T02:08:30.464Z,505.40
2019-02-27T02:11:01.385Z,453.47
2019-02-27T02:14:21.214Z,517.73
2019-02-27T02:17:29.128Z,703.77
2019-02-27T02:20:32.088Z,662.83
2019-02-27T02:23:40.403Z,541.77
2019-02-27T02:26:52.148Z,464.40
2019-02-27T02:29:57.840Z,267.93
2019-02-27T02:32:52.066Z,296.70
2019-02-27T02:35:38.293Z,374.93
2019-02-27T02:38:58.657Z,248.70
2019-02-27T02:42:11.654Z,304.63
2019-02-27T02:45:07.991Z,513.67
2019-02-27T02:48:10.895Z,569.23
2019-02-27T02:51:29.169Z,329.30
2019-02-27T02:54:47.791Z,370.40
2019-02-27T02:57:57.649Z,391.93
2019-02-27T03:01:15.193Z,208.07
2019-02-27T03:04:29.722Z,610.00
2019-02-27T03:07:44.499Z,348.90
2019-02-27T03:10:33.390Z,313.97
2019-02-27T03:13:41.491Z,180.00
2019-02-27T03:16:29.904Z,172.73
2019-02-27T03:19:47.465Z,202.17
2019-02-27T03:23:02.147Z,316.70
2019-02-27T03:25:49.753Z,266.63
2019-02-27T03:29:07.125Z,587.00
2019-02-27T03:32:16.230Z,605.73
2019-02-27T03:35:27.983Z,345.97
2019-02-27T03:38:27.363Z,726.67
2019-02-27T03:41:37.514Z,1072.50
2019-02-27T03:44:30.447Z,1097.60
2019-02-27T03:47:28.008Z,995.13
2019-02-27T03:50:30.502Z,659.47
2019-02-27T03:54:09.205Z,541.23
2019-02-27T03:57:04.884Z,291.27
2019-02-27T04:00:02.323Z,301.00
2019-02-27T04:03:05.541Z,387.73
2019-02-27T04:05:58.800Z,361.37
2019-02-27T04:09:05.009Z,367.63
2019-02-27T04:11:41.524Z,333.60
2019-02-27T04:14:28.648Z,482.90
2019-02-27T04:17:05.515Z,482.93
2019-02-27T04:19:38.748Z,645.40
2019-02-27T04:22:05.001Z,606.37
2019-02-27T04:24:35.472Z,656.80
2019-02-27T04:27:05.878Z,582.47
2019-02-27T04:29:40.840Z,518.77
2019-02-27T04:32:12.346Z,340.83
2019-02-27T04:34:41.596Z,498.47
2019-02-27T04:37:12.070Z,342.60
2019-02-27T04:39:42.702Z,381.07
2019-02-27T04:42:13.276Z,513.00
2019-02-27T04:44:43.699Z,476.90
2019-02-27T04:47:14.218Z,401.20
2019-02-27T04:49:44.788Z,398.13
2019-02-27T04:52:15.485Z,276.73
2019-02-27T04:54:46.232Z,213.83
2019-02-27T04:57:16.881Z,321.23
2019-02-27T04:59:49.688Z,351.93
2019-02-27T05:02:19.916Z,378.43
2019-02-27T05:04:50.537Z,464.07
2019-02-27T05:07:21.113Z,252.60
2019-02-27T05:09:51.636Z,571.40
2019-02-27T05:12:22.390Z,355.10
2019-02-27T05:14:52.964Z,297.03
2019-02-27T05:17:23.740Z,268.27
2019-02-27T05:19:54.260Z,176.27
2019-02-27T05:22:26.776Z,189.07
2019-02-27T05:24:57.030Z,279.93
2019-02-27T05:27:27.740Z,330.50
2019-02-27T05:30:00.022Z,154.70
2019-02-27T05:32:30.577Z,293.20
2019-02-27T05:35:01.234Z,349.73
2019-02-27T05:37:31.800Z,622.90
2019-02-27T05:40:02.592Z,699.17
2019-02-27T05:42:34.024Z,321.67
2019-02-27T05:45:04.890Z,323.20
2019-02-27T05:47:35.626Z,181.70
2019-02-27T05:50:07.250Z,186.83
2019-02-27T05:52:37.691Z,165.70
2019-02-27T05:55:09.277Z,326.00
2019-02-27T05:57:39.700Z,376.90
2019-02-27T06:00:15.672Z,538.07
2019-02-27T06:02:46.002Z,341.13
2019-02-27T06:05:16.500Z,528.27
2019-02-27T06:07:49.038Z,504.93
2019-02-27T06:10:20.753Z,188.83
2019-02-27T06:12:51.256Z,311.30
2019-02-27T06:15:21.769Z,288.10
2019-02-27T06:17:52.109Z,165.90
2019-02-27T06:20:22.633Z,198.87
2019-02-27T06:22:54.136Z,220.83
2019-02-27T06:25:24.642Z,290.37
2019-02-27T06:27:55.244Z,248.90
2019-02-27T06:30:27.963Z,592.23
2019-02-27T06:32:58.192Z,191.00
2019-02-27T06:35:33.492Z,209.07
2019-02-27T06:38:02.125Z,291.57
2019-02-27T06:40:32.773Z,322.60
2019-02-27T06:43:05.529Z,164.10
2019-02-27T06:45:39.938Z,368.63
2019-02-27T06:48:10.421Z,320.87
2019-02-27T06:50:40.918Z,354.80
2019-02-27T06:53:15.398Z,173.17
2019-02-27T06:55:43.953Z,156.03
2019-02-27T06:58:15.452Z,225.57
2019-02-27T07:00:45.851Z,153.57
2019-02-27T07:03:16.657Z,140.83
2019-02-27T07:05:48.256Z,204.60
2019-02-27T07:08:20.134Z,189.53
2019-02-27T07:10:50.580Z,143.73
2019-02-27T07:13:21.695Z,205.47
2019-02-27T07:15:52.052Z,243.83
2019-02-27T07:18:22.708Z,144.50
2019-02-27T07:20:55.745Z,174.37
2019-02-27T07:23:25.322Z,238.87
2019-02-27T07:25:56.137Z,196.10
2019-02-27T07:28:26.941Z,142.30
2019-02-27T07:30:57.312Z,319.57
2019-02-27T07:33:28.104Z,131.70
2019-02-27T07:36:03.146Z,236.27
2019-02-27T07:38:31.415Z,202.00
2019-02-27T07:41:02.071Z,228.47
2019-02-27T07:43:33.144Z,318.13
2019-02-27T07:46:03.741Z,153.10
2019-02-27T07:48:34.604Z,189.17
2019-02-27T07:51:04.984Z,139.50
2019-02-27T07:53:35.933Z,225.57
2019-02-27T07:56:06.632Z,167.60
2019-02-27T07:58:37.309Z,245.93
2019-02-27T08:01:07.896Z,267.60
2019-02-27T08:03:38.524Z,1000.97
2019-02-27T08:06:09.009Z,467.67
2019-02-27T08:08:39.656Z,356.53
2019-02-27T08:11:13.430Z,1211.37
2019-02-27T08:13:42.711Z,1655.60
2019-02-27T08:16:13.148Z,667.83
2019-02-27T08:18:43.802Z,431.43
2019-02-27T08:21:14.216Z,1148.83
2019-02-27T08:23:45.026Z,278.90
2019-02-27T08:26:15.875Z,254.20
2019-02-27T08:28:46.484Z,240.87
2019-02-27T08:31:17.039Z,1139.10
2019-02-27T08:33:47.607Z,1064.17
2019-02-27T08:36:18.021Z,1223.53
2019-02-27T08:38:48.478Z,360.00
2019-02-27T08:41:18.955Z,260.07
2019-02-27T08:43:49.798Z,216.60
2019-02-27T08:46:20.205Z,273.00
2019-02-27T08:48:50.876Z,290.87
2019-02-27T08:51:22.192Z,265.83
2019-02-27T08:53:52.712Z,288.17
2019-02-27T08:56:23.156Z,285.50
2019-02-27T08:58:53.708Z,224.87
2019-02-27T09:01:24.272Z,207.80
2019-02-27T09:03:54.929Z,224.93
2019-02-27T09:06:27.519Z,221.97
2019-02-27T09:08:58.680Z,236.50
2019-02-27T09:11:29.216Z,165.90
2019-02-27T09:13:59.769Z,213.30
2019-02-27T09:16:30.284Z,212.30
2019-02-27T09:19:00.981Z,213.23
2019-02-27T09:21:31.432Z,195.33
2019-02-27T09:24:01.997Z,175.37
2019-02-27T09:26:36.067Z,138.73
2019-02-27T09:29:04.976Z,174.43
2019-02-27T09:31:37.778Z,168.20
2019-02-27T09:34:08.119Z,158.27
2019-02-27T09:36:43.039Z,156.00
2019-02-27T09:39:11.393Z,145.23
2019-02-27T09:41:46.047Z,136.30
2019-02-27T09:44:14.537Z,147.47
2019-02-27T09:46:44.993Z,102.13
2019-02-27T09:49:15.532Z,72.73
2019-02-27T09:51:45.960Z,76.57
2019-02-27T09:54:16.489Z,71.30
2019-02-27T09:56:46.995Z,70.77
2019-02-27T09:59:19.681Z,62.23
2019-02-27T10:01:49.921Z,62.00
2019-02-27T10:04:20.497Z,61.43
2019-02-27T10:06:50.932Z,61.53
2019-02-27T10:09:21.593Z,50.97
2019-02-27T10:11:52.328Z,51.03
2019-02-27T10:14:24.104Z,51.93
2019-02-27T10:16:54.560Z,60.33
2019-02-27T10:19:26.992Z,52.47
2019-02-27T10:21:57.209Z,52.00
2019-02-27T10:24:27.705Z,52.17
2019-02-27T10:26:58.253Z,52.80
2019-02-27T10:29:28.781Z,46.17
2019-02-27T10:32:00.729Z,47.47
2019-02-27T10:34:31.560Z,50.20
2019-02-27T10:37:03.251Z,45.83
2019-02-27T10:39:36.902Z,40.23
2019-02-27T10:42:10.006Z,41.33
2019-02-27T10:44:41.949Z,41.07
2019-02-27T10:47:12.391Z,41.77
2019-02-27T10:49:45.577Z,39.67
2019-02-27T10:52:16.063Z,38.60
2019-02-27T10:54:47.218Z,38.40
2019-02-27T10:57:17.937Z,36.90
2019-02-27T10:59:49.226Z,39.70
2019-02-27T11:02:19.961Z,33.80
2019-02-27T11:04:50.736Z,29.70
2019-02-27T11:07:21.463Z,32.43
2019-02-27T11:09:52.208Z,32.60
2019-02-27T11:12:22.867Z,29.70
2019-02-27T11:14:53.695Z,30.10
2019-02-27T11:17:25.256Z,27.93
2019-02-27T11:19:55.994Z,28.00
2019-02-27T11:22:26.817Z,32.30
2019-02-27T11:24:57.721Z,37.50
2019-02-27T11:27:28.360Z,36.30
2019-02-27T11:30:01.240Z,36.67
2019-02-27T11:32:31.541Z,29.40
2019-02-27T11:35:02.372Z,26.00
2019-02-27T11:37:34.080Z,28.27
2019-02-27T11:40:07.832Z,27.23
2019-02-27T11:42:37.703Z,28.00
2019-02-27T11:45:09.410Z,32.63
2019-02-27T11:47:45.073Z,26.57
2019-02-27T11:50:14.681Z,28.87
2019-02-27T11:52:49.122Z,29.27
2019-02-27T11:55:19.091Z,31.67
2019-02-27T11:57:50.249Z,30.93
2019-02-27T12:00:28.479Z,26.97
2019-02-27T12:02:59.848Z,24.80
2019-02-27T12:05:34.299Z,27.73
2019-02-27T12:08:04.252Z,26.30
2019-02-27T12:10:35.423Z,24.20
2019-02-27T12:13:06.556Z,25.27
2019-02-27T12:15:43.593Z,20.97
2019-02-27T12:18:13.716Z,24.67
2019-02-27T12:20:44.613Z,19.03
2019-02-27T12:23:15.193Z,19.40
2019-02-27T12:25:46.285Z,22.77
2019-02-27T12:28:19.389Z,22.43
2019-02-27T12:30:50.866Z,21.83
2019-02-27T12:33:21.470Z,19.80
2019-02-27T12:35:53.788Z,21.23
2019-02-27T12:38:25.366Z,20.47
2019-02-27T12:40:58.275Z,21.57
2019-02-27T12:43:28.452Z,23.00
2019-02-27T12:46:01.000Z,18.80
2019-02-27T12:48:31.172Z,20.37
2019-02-27T12:51:03.648Z,19.07
2019-02-27T12:53:33.985Z,24.23
2019-02-27T12:56:07.862Z,21.63
2019-02-27T12:58:37.332Z,22.13
2019-02-27T13:01:08.243Z,22.20
2019-02-27T13:03:42.240Z,22.07
2019-02-27T13:06:11.206Z,21.10
2019-02-27T13:08:41.652Z,22.20
2019-02-27T13:11:12.433Z,22.67
2019-02-27T13:13:43.100Z,21.83
2019-02-27T13:16:14.432Z,20.17
2019-02-27T13:18:46.528Z,21.07
2019-02-27T13:21:20.475Z,21.97
2019-02-27T13:23:49.640Z,20.83
2019-02-27T13:26:20.549Z,23.43
2019-02-27T13:28:53.830Z,26.87
2019-02-27T13:31:26.885Z,25.53
2019-02-27T13:34:00.424Z,22.37
2019-02-27T13:36:34.033Z,26.37
2019-02-27T13:39:08.213Z,30.33
2019-02-27T13:41:39.040Z,25.60
2019-02-27T13:44:09.619Z,29.23
2019-02-27T13:46:40.120Z,27.93
2019-02-27T13:49:11.335Z,37.43
2019-02-27T13:51:42.664Z,41.17
2019-02-27T13:54:13.520Z,46.73
2019-02-27T13:56:47.584Z,45.60
2019-02-27T13:59:24.363Z,51.90
2019-02-27T14:01:55.610Z,53.77
2019-02-27T14:04:26.479Z,59.17
2019-02-27T14:06:57.166Z,57.17
2019-02-27T14:09:27.643Z,56.53
2019-02-27T14:11:58.700Z,58.60
2019-02-27T14:14:30.387Z,57.23
2019-02-27T14:17:01.275Z,54.50
2019-02-27T14:19:31.933Z,54.13
2019-02-27T14:22:07.242Z,60.93
2019-02-27T14:24:34.957Z,62.70
2019-02-27T14:27:05.988Z,65.83
2019-02-27T14:29:36.832Z,61.87
2019-02-27T14:32:07.396Z,59.90
2019-02-27T14:34:38.020Z,54.73
2019-02-27T14:37:08.643Z,48.70
2019-02-27T14:39:39.163Z,41.20
2019-02-27T14:42:09.695Z,42.40
2019-02-27T14:44:40.445Z,43.63
2019-02-27T14:47:11.155Z,39.10
2019-02-27T14:49:41.814Z,44.73
2019-02-27T14:52:14.203Z,47.60
2019-02-27T14:54:44.892Z,50.07
2019-02-27T14:57:15.961Z,46.17
2019-02-27T14:59:47.261Z,41.17
2019-02-27T15:02:22.165Z,45.03
2019-02-27T15:04:51.600Z,57.00
2019-02-27T15:07:22.264Z,59.53
2019-02-27T15:09:54.212Z,61.53
2019-02-27T15:12:24.944Z,55.30
2019-02-27T15:14:55.707Z,50.97
2019-02-27T15:17:26.429Z,58.17
2019-02-27T15:19:57.016Z,57.07
2019-02-27T15:22:27.540Z,55.67
2019-02-27T15:24:59.166Z,58.73
2019-02-27T15:27:29.724Z,59.73
2019-02-27T15:30:00.325Z,53.67
2019-02-27T15:32:31.093Z,66.50
2019-02-27T15:35:01.766Z,66.80
2019-02-27T15:37:37.167Z,61.87
2019-02-27T15:40:05.368Z,67.33
2019-02-27T15:42:37.012Z,64.43
2019-02-27T15:45:09.975Z,61.80
2019-02-27T15:47:40.669Z,66.87
2019-02-27T15:50:12.652Z,69.00
2019-02-27T15:52:43.312Z,67.07
2019-02-27T15:55:14.094Z,68.63
2019-02-27T15:57:44.581Z,81.57
2019-02-27T16:00:19.415Z,77.80
2019-02-27T16:02:50.283Z,62.43
2019-02-27T16:05:20.691Z,65.27
2019-02-27T16:07:51.215Z,71.17
2019-02-27T16:10:22.629Z,75.90
2019-02-27T16:12:53.654Z,65.67
2019-02-27T16:15:24.515Z,70.67
2019-02-27T16:17:55.274Z,71.50
2019-02-27T16:20:25.771Z,72.00
2019-02-27T16:22:56.584Z,65.47
2019-02-27T16:25:28.140Z,67.10
2019-02-27T16:27:58.657Z,69.60
2019-02-27T16:30:32.454Z,68.63
2019-02-27T16:33:01.724Z,79.30
2019-02-27T16:35:32.226Z,79.40
2019-02-27T16:38:02.897Z,83.70
2019-02-27T16:40:33.292Z,79.07
2019-02-27T16:43:03.916Z,66.93
2019-02-27T16:45:36.838Z,58.77
2019-02-27T16:48:06.673Z,74.10
2019-02-27T16:50:37.191Z,91.10
2019-02-27T16:53:07.686Z,79.73
2019-02-27T16:55:39.497Z,101.80
2019-02-27T16:58:12.284Z,90.77
2019-02-27T17:00:43.196Z,72.80
2019-02-27T17:03:14.062Z,80.93
2019-02-27T17:05:45.310Z,79.13
2019-02-27T17:08:15.948Z,74.83
2019-02-27T17:10:46.355Z,59.77
2019-02-27T17:13:16.871Z,83.23
2019-02-27T17:15:47.331Z,78.47
2019-02-27T17:18:18.168Z,96.50
2019-02-27T17:20:48.551Z,81.77
2019-02-27T17:23:19.009Z,68.40
2019-02-27T17:25:51.612Z,66.60
2019-02-27T17:28:22.380Z,99.97
2019-02-27T17:30:52.803Z,95.73
2019-02-27T17:33:23.592Z,97.77
2019-02-27T17:35:58.549Z,103.17
2019-02-27T17:38:26.416Z,109.93
2019-02-27T17:40:57.016Z,104.23
2019-02-27T17:43:29.500Z,132.33
2019-02-27T17:46:01.453Z,97.37
2019-02-27T17:48:32.072Z,143.85
2019-02-27T17:51:05.563Z,117.97
2019-02-27T17:53:34.856Z,126.47
2019-02-27T17:56:05.475Z,114.93
2019-02-27T17:58:35.915Z,107.70
2019-02-27T18:01:07.392Z,90.27
2019-02-27T18:03:41.544Z,91.07
2019-02-27T18:06:10.808Z,120.60
2019-02-27T18:08:41.372Z,95.70
2019-02-27T18:11:12.354Z,68.23
2019-02-27T18:13:43.963Z,73.27
2019-02-27T18:16:14.540Z,111.63
2019-02-27T18:18:45.509Z,92.43
2019-02-27T18:21:18.490Z,80.37
2019-02-27T18:23:50.763Z,116.23
2019-02-27T18:26:31.915Z,92.67
2019-02-27T18:29:27.662Z,106.20
2019-02-27T18:32:06.112Z,87.17
2019-02-27T18:34:33.974Z,102.93
2019-02-27T18:37:05.468Z,105.30
2019-02-27T18:39:36.548Z,129.80
2019-02-27T18:42:07.844Z,97.83
2019-02-27T18:45:02.012Z,134.10
2019-02-27T18:48:10.986Z,137.80
2019-02-27T18:50:39.761Z,131.77
2019-02-27T18:53:13.061Z,98.13
2019-02-27T18:55:44.006Z,121.07
2019-02-27T18:58:14.640Z,107.47
2019-02-27T19:00:46.378Z,133.67
2019-02-27T19:03:16.925Z,98.73
2019-02-27T19:05:47.587Z,84.07
2019-02-27T19:08:18.125Z,100.83
2019-02-27T19:10:48.813Z,83.50
2019-02-27T19:13:19.275Z,107.80
2019-02-27T19:15:50.082Z,81.63
2019-02-27T19:18:20.725Z,96.83
2019-02-27T19:20:51.300Z,89.90
2019-02-27T19:23:21.696Z,95.83
2019-02-27T19:25:52.511Z,98.43
2019-02-27T19:28:25.007Z,96.27
2019-02-27T19:30:55.132Z,88.30
2019-02-27T19:33:25.852Z,86.63
2019-02-27T19:35:57.537Z,61.83
2019-02-27T19:38:28.098Z,86.37
2019-02-27T19:41:01.259Z,82.37
2019-02-27T19:43:30.808Z,96.87
2019-02-27T19:46:01.594Z,85.97
2019-02-27T19:48:32.130Z,81.13
2019-02-27T19:51:03.079Z,83.10
2019-02-27T19:53:33.744Z,82.97
2019-02-27T19:56:08.067Z,77.77
2019-02-27T19:58:38.457Z,79.43
2019-02-27T20:01:09.872Z,80.10
2019-02-27T20:03:40.520Z,83.20
2019-02-27T20:06:11.096Z,84.67
2019-02-27T20:08:45.375Z,87.90
2019-02-27T20:11:15.231Z,93.03
2019-02-27T20:13:45.675Z,85.63
2019-02-27T20:16:17.717Z,94.17
2019-02-27T20:18:54.852Z,89.23
2019-02-27T20:21:21.116Z,98.37
2019-02-27T20:23:51.439Z,97.10
2019-02-27T20:26:22.084Z,101.33
2019-02-27T20:28:52.615Z,102.60
2019-02-27T20:31:23.057Z,109.50
2019-02-27T20:33:53.608Z,103.53
2019-02-27T20:36:24.223Z,105.27
2019-02-27T20:38:54.821Z,100.20
2019-02-27T20:41:25.787Z,107.87
2019-02-27T20:43:56.091Z,120.47
2019-02-27T20:46:27.116Z,117.10
2019-02-27T20:48:58.016Z,120.77
2019-02-27T20:51:28.573Z,125.90
2019-02-27T20:53:59.283Z,124.80
2019-02-27T20:56:29.860Z,133.77
2019-02-27T20:59:02.002Z,138.30
2019-02-27T21:01:33.647Z,142.45
2019-02-27T21:04:04.473Z,151.60
2019-02-27T21:06:35.060Z,137.40
2019-02-27T21:09:11.109Z,158.43
2019-02-27T21:11:39.880Z,156.77
2019-02-27T21:14:13.145Z,153.90
2019-02-27T21:16:45.717Z,158.73
2019-02-27T21:19:16.308Z,159.70
2019-02-27T21:21:46.932Z,165.37
2019-02-27T21:24:20.141Z,165.40
2019-02-27T21:26:50.643Z,187.47
2019-02-27T21:29:21.189Z,165.20
2019-02-27T21:31:52.033Z,186.57
2019-02-27T21:34:22.599Z,181.03
2019-02-27T21:36:53.372Z,189.63
2019-02-27T21:39:25.255Z,201.40
2019-02-27T21:41:56.072Z,191.23
2019-02-27T21:44:30.438Z,199.70
2019-02-27T21:47:01.110Z,215.33
2019-02-27T21:49:32.879Z,234.00
2019-02-27T21:52:03.334Z,246.57
2019-02-27T21:54:38.396Z,193.20
2019-02-27T21:57:05.995Z,206.03
2019-02-27T21:59:39.772Z,226.47
2019-02-27T22:02:10.231Z,223.23
2019-02-27T22:04:41.204Z,285.80
2019-02-27T22:07:13.332Z,283.03
2019-02-27T22:09:44.673Z,285.43
2019-02-27T22:12:16.947Z,278.50
2019-02-27T22:14:48.581Z,270.37
2019-02-27T22:17:19.723Z,295.63
2019-02-27T22:19:50.521Z,284.47
2019-02-27T22:22:22.584Z,271.00
2019-02-27T22:24:55.602Z,280.13
2019-02-27T22:27:25.160Z,264.17
2019-02-27T22:29:55.945Z,301.60
2019-02-27T22:32:26.458Z,257.37
2019-02-27T22:34:59.198Z,264.27
2019-02-27T22:37:29.484Z,294.23
2019-02-27T22:39:59.871Z,284.80
2019-02-27T22:42:30.311Z,244.10
2019-02-27T22:45:04.198Z,264.97
2019-02-27T22:47:33.267Z,278.43
2019-02-27T22:50:06.912Z,266.60
2019-02-27T22:52:36.037Z,290.50
2019-02-27T22:55:07.279Z,305.90
2019-02-27T22:57:39.158Z,271.53
2019-02-27T23:00:29.511Z,272.60
2019-02-27T23:03:01.601Z,277.67
2019-02-27T23:05:35.231Z,267.60
2019-02-27T23:08:04.800Z,244.57
2019-02-27T23:10:36.231Z,253.10
2019-02-27T23:13:12.390Z,275.33
2019-02-27T23:15:40.903Z,296.20
2019-02-27T23:18:11.459Z,249.53
2019-02-27T23:20:42.795Z,218.33
2019-02-27T23:23:16.480Z,270.50
2019-02-27T23:25:47.440Z,269.57
2019-02-27T23:28:17.924Z,252.47
2019-02-27T23:30:48.560Z,252.80
2019-02-27T23:33:19.228Z,247.07
2019-02-27T23:35:50.155Z,250.17
2019-02-27T23:38:21.484Z,255.90
2019-02-27T23:40:51.776Z,226.40
2019-02-27T23:43:22.291Z,244.40
2019-02-27T23:45:52.761Z,236.10
2019-02-27T23:48:23.495Z,224.47
2019-02-27T23:50:54.168Z,232.33
2019-02-27T23:53:27.111Z,238.07
2019-02-27T23:55:56.643Z,244.57
2019-02-27T23:58:29.432Z,235.13
